Lake Worth, FL (33460)

11:14 AM EDT on August 22, 2014 (GMT -0400)
College Park | Change Station
CLOSE
Current Station
Personal Weather Station
Location: Lake Worth, FL
Elevation: 20 ft
Nearby Weather Stations

Elev 20 ft 26.64 °N, 80.05 °W | Updated 3 seconds ago

Overcast
Overcast
90.4 °F
Feels Like 107 °F
N
1.0
Wind Variable Wind from East
Gusts 4.0 mph

Today
High -- | Low -- °F
--% Chance of Precip.
Yesterday
High -- | Low -- °F
Precip. -- in
6:55 AM 7:50 PM
Waning Crescent, 8% visible
Pressure 30.08 in
Visibility 10.0 miles
Clouds Scattered Clouds 2500 ft
Scattered Clouds 4500 ft
Mostly Cloudy 25000 ft
Heat Index 107 °F
Dew Point 79 °F
Humidity 70%
Rainfall 0.00 in
Snow Depth Not available.
UV 5 out of 12
Pollen 4.70 out of 12
Air Quality Not available.
Flu Activity Not available.
METAR KPBI 221453Z 13003KT 10SM TS SCT025CB SCT045 BKN250 31/24 A3008 RMK AO2 SLP185 OCNL LTGICCG S-SW TS S-SW MOV LTL CB DSNT NE NW T03110244 50007

More Conditions Fewer Conditions

Pressure 30.08 in
Visibility 10.0 miles
Clouds Scattered Clouds 2500 ft
Scattered Clouds 4500 ft
Mostly Cloudy 25000 ft
Heat Index 107 °F
Dew Point 79 °F
Humidity 70%
Rainfall 0.00 in
Snow Depth Not available.
UV 5 out of 12
Pollen 4.70 out of 12
Air Quality Not available.
Flu Activity Not available.
METAR KPBI 221453Z 13003KT 10SM TS SCT025CB SCT045 BKN250 31/24 A3008 RMK AO2 SLP185 OCNL LTGICCG S-SW TS S-SW MOV LTL CB DSNT NE NW T03110244 50007

More Conditions Fewer Conditions

10-Day Weather Forecast

Almanac

Astronomy

Aug. 22, 2014 Rise Set
Actual Time 6:55 AM EDT 7:50 PM EDT
Civil Twilight 6:31 AM EDT 8:14 PM EDT
Nautical Twilight 6:03 AM EDT 8:42 PM EDT
Astronomical Twilight 5:34 AM EDT 9:11 PM EDT
Moon 4:23 AM EDT 5:52 PM EDT
Length of Visible Light 13h 42m
Length of Day
12h 54m
Tomorrow will be 1m 26s shorter.
Waning Crescent, 8% of the Moon is Illuminated
Today
Waning Crescent
Aug 25
New
Sep 2
First Quarter
Sep 8
Full
Sep 15
Last Quarter

Today's Extremes

State Highs State Lows

Community

WunderPhotos

Upload Photos

1,746,187 photos uploaded!

WunderBlogs® & News

Nearby

Air Quality

  Air Quality AQ Index Pollutant
Yesterday Good
OZONE
Friday Good
OZONE
Friday Good
PM2.5

Snow Depth

Station Depth Elevation
No new snow has been reported.

Earthquake Activity

City Distance Mag. Time & Date
No recent earthquake activity has been reported nearby.
Minimum magnitude displayed is 2.5.

Coastal Water Temperatures

Place Temperature
Lake Worth, FL 87.1 °F
Virginia Key, FL 89.1 °F

Nearby Weather Stations